Time;durP1;ratioP1;P1;durP2;ratioP2;P2;SDS_P1;SDS_P2;PMS_P1;PMS_P2;Temp;Humidity;BMP_temperature;BMP_pressure;BME280_temperature;BME280_humidity;BME280_pressure;Samples;Min_cycle;Max_cycle;Signal;HPM_P1;HPM_P2
2023/02/23 00:01:21;;;;;;;89.85;48.08;;;10.40;99.90;;;;;;5077004;28;20390;-86
2023/02/23 00:03:48;;;;;;;99.05;47.30;;;10.40;99.90;;;;;;5060765;28;20048;-91
2023/02/23 00:06:14;;;;;;;90.22;45.92;;;10.40;99.90;;;;;;5058359;28;20087;-87
2023/02/23 00:08:40;;;;;;;95.20;48.88;;;10.40;99.90;;;;;;5057741;28;20117;-86
2023/02/23 00:11:11;;;;;;;93.40;47.22;;;10.40;99.90;;;;;;5059129;28;20048;-87
2023/02/23 00:13:37;;;;;;;96.80;47.50;;;10.40;99.90;;;;;;5060403;28;20025;-87
2023/02/23 00:16:05;;;;;;;94.63;47.92;;;10.40;99.90;;;;;;5058584;28;20090;-88
2023/02/23 00:18:39;;;;;;;90.93;47.22;;;10.40;99.90;;;;;;5058940;28;20032;-87
2023/02/23 00:21:05;;;;;;;92.88;48.28;;;10.40;99.90;;;;;;5057114;28;20025;-88
2023/02/23 00:23:31;;;;;;;88.68;45.20;;;10.40;99.90;;;;;;5058021;28;20035;-87
2023/02/23 00:25:58;;;;;;;99.22;47.55;;;10.40;99.90;;;;;;5041209;28;20538;-87
2023/02/23 00:28:24;;;;;;;92.43;47.38;;;10.40;99.90;;;;;;5058477;28;20037;-87
2023/02/23 00:30:49;;;;;;;90.05;46.70;;;10.30;99.90;;;;;;5044507;28;20034;-90
2023/02/23 00:33:15;;;;;;;89.55;45.10;;;10.30;99.90;;;;;;5042254;28;20452;-88
2023/02/23 00:35:41;;;;;;;92.32;47.13;;;10.30;99.90;;;;;;5058117;28;20075;-88
2023/02/23 00:38:07;;;;;;;96.95;48.38;;;10.30;99.90;;;;;;5057951;28;20115;-87
2023/02/23 00:40:33;;;;;;;86.22;45.50;;;10.30;99.90;;;;;;5042340;28;20063;-87
2023/02/23 00:42:59;;;;;;;88.90;45.72;;;10.30;99.90;;;;;;5040947;28;20376;-87
2023/02/23 00:45:25;;;;;;;94.03;46.05;;;10.30;99.90;;;;;;5041639;28;20081;-87
2023/02/23 00:47:53;;;;;;;87.97;46.55;;;10.30;99.90;;;;;;5060934;28;20403;-86
2023/02/23 00:50:19;;;;;;;91.22;46.70;;;10.30;99.90;;;;;;5056480;28;20033;-87
2023/02/23 00:52:45;;;;;;;95.82;48.40;;;10.20;99.90;;;;;;5039987;28;20059;-87
2023/02/23 00:55:13;;;;;;;94.32;48.88;;;10.20;99.90;;;;;;5039054;28;20060;-87
2023/02/23 00:57:38;;;;;;;92.30;46.67;;;10.20;99.90;;;;;;5055846;28;20060;-86
2023/02/23 01:00:19;;;;;;;91.63;47.45;;;10.20;99.90;;;;;;5039373;28;20473;-87
2023/02/23 01:02:47;;;;;;;94.68;47.50;;;10.20;99.90;;;;;;5056226;28;20020;-87
2023/02/23 01:05:15;;;;;;;91.25;46.17;;;10.20;99.90;;;;;;5058688;28;20039;-87
2023/02/23 01:07:41;;;;;;;94.80;46.42;;;10.20;99.90;;;;;;5080347;28;20028;-87
2023/02/23 01:10:20;;;;;;;85.47;47.25;;;10.20;99.90;;;;;;5066131;28;20047;-87
2023/02/23 01:12:50;;;;;;;88.53;45.88;;;10.20;99.90;;;;;;5078954;28;20028;-86
2023/02/23 01:15:17;;;;;;;92.60;46.13;;;10.20;99.90;;;;;;5079993;28;20011;-89
2023/02/23 01:17:42;;;;;;;92.53;47.38;;;10.20;99.90;;;;;;5080104;28;20025;-87
2023/02/23 01:20:17;;;;;;;90.75;47.60;;;10.20;99.90;;;;;;5063268;28;20012;-90
2023/02/23 01:22:48;;;;;;;87.80;47.58;;;10.20;99.90;;;;;;5057672;28;20031;-87
2023/02/23 01:25:15;;;;;;;89.47;47.47;;;10.20;99.90;;;;;;5054371;28;20051;-87
2023/02/23 01:27:42;;;;;;;84.63;46.05;;;10.20;99.90;;;;;;5065056;28;20024;-87
2023/02/23 01:30:11;;;;;;;89.38;46.90;;;10.20;99.90;;;;;;5083568;28;20055;-88
2023/02/23 01:32:38;;;;;;;88.88;45.85;;;10.20;99.90;;;;;;5074480;28;20021;-88
2023/02/23 01:35:07;;;;;;;88.60;45.65;;;10.20;99.90;;;;;;5075962;28;20025;-87
2023/02/23 01:37:34;;;;;;;90.32;47.50;;;10.10;99.90;;;;;;5076918;28;20032;-87
2023/02/23 01:40:05;;;;;;;92.43;48.47;;;10.20;99.90;;;;;;5058973;28;20037;-88
2023/02/23 01:42:31;;;;;;;91.40;47.28;;;10.20;99.90;;;;;;5077293;28;20024;-88
2023/02/23 01:45:18;;;;;;;94.97;47.60;;;10.20;99.90;;;;;;5059330;28;20024;-88
2023/02/23 01:47:44;;;;;;;86.15;44.80;;;10.20;99.90;;;;;;5058920;28;20091;-88
2023/02/23 01:50:10;;;;;;;89.53;46.08;;;10.20;99.90;;;;;;5058889;28;20032;-87
2023/02/23 01:52:38;;;;;;;89.28;46.45;;;10.20;99.90;;;;;;5058574;28;20118;-87
2023/02/23 01:55:05;;;;;;;84.28;44.40;;;10.10;99.90;;;;;;5059134;28;20032;-87
2023/02/23 01:57:31;;;;;;;90.57;46.83;;;10.20;99.90;;;;;;5058314;28;20033;-87
2023/02/23 01:59:57;;;;;;;84.43;44.65;;;10.10;99.90;;;;;;5058980;28;20056;-88
2023/02/23 02:02:32;;;;;;;77.85;42.92;;;10.10;99.90;;;;;;5042318;28;20048;-88
2023/02/23 02:05:00;;;;;;;85.60;46.45;;;10.10;99.90;;;;;;5058734;28;20353;-87
2023/02/23 02:07:29;;;;;;;86.07;44.92;;;10.10;99.90;;;;;;5058645;28;20075;-88
2023/02/23 02:12:38;;;;;;;82.88;43.53;;;10.10;99.90;;;;;;5076144;28;20037;-88
2023/02/23 02:15:06;;;;;;;88.97;43.97;;;10.10;99.90;;;;;;5041785;28;20029;-88
2023/02/23 02:18:01;;;;;;;84.72;45.20;;;10.10;99.90;;;;;;5058679;28;20067;-88
2023/02/23 02:20:31;;;;;;;87.72;44.85;;;10.10;99.90;;;;;;5058392;28;20115;-87
2023/02/23 02:23:26;;;;;;;85.82;44.85;;;10.10;99.90;;;;;;5076724;28;20025;-87
2023/02/23 02:26:10;;;;;;;84.72;45.70;;;10.10;99.90;;;;;;5057839;28;20035;-88
2023/02/23 02:28:55;;;;;;;88.28;44.50;;;10.10;99.90;;;;;;5058417;28;20054;-87
2023/02/23 02:31:48;;;;;;;78.72;44.10;;;10.10;99.90;;;;;;5076215;28;20036;-87
2023/02/23 02:34:28;;;;;;;81.30;43.78;;;10.10;99.90;;;;;;5057986;28;20035;-88
2023/02/23 02:37:05;;;;;;;82.50;44.35;;;10.00;99.90;;;;;;5057756;28;20095;-88
2023/02/23 02:39:43;;;;;;;82.55;44.13;;;10.00;99.90;;;;;;5058013;28;20059;-87
2023/02/23 02:42:54;;;;;;;80.25;41.70;;;10.00;99.90;;;;;;5057914;28;20025;-88
2023/02/23 02:45:33;;;;;;;79.28;41.20;;;10.00;99.90;;;;;;5046444;28;20365;-88
2023/02/23 02:48:09;;;;;;;85.95;44.58;;;10.00;99.90;;;;;;5058099;28;20068;-87
2023/02/23 02:51:02;;;;;;;80.32;42.47;;;10.00;99.90;;;;;;5058251;28;20374;-88
2023/02/23 02:53:56;;;;;;;79.05;43.38;;;10.00;99.90;;;;;;5075583;28;20157;-87
2023/02/23 02:56:25;;;;;;;82.18;42.80;;;10.00;99.90;;;;;;5057064;28;20123;-88
2023/02/23 02:58:52;;;;;;;77.45;41.33;;;10.00;99.90;;;;;;5057736;28;20047;-88
2023/02/23 04:18:31;;;;;;;80.03;42.50;;;9.80;99.90;;;;;;5074624;28;20032;-87
2023/02/23 04:20:57;;;;;;;79.35;41.88;;;9.80;99.90;;;;;;5056645;28;20024;-86
2023/02/23 04:23:23;;;;;;;80.53;42.10;;;9.80;99.90;;;;;;5056363;28;20028;-86
2023/02/23 04:25:50;;;;;;;75.88;42.10;;;9.80;99.90;;;;;;5056515;28;20111;-87
2023/02/23 04:28:15;;;;;;;78.20;41.60;;;9.80;99.90;;;;;;5056002;28;20039;-89
2023/02/23 04:30:41;;;;;;;82.57;43.60;;;9.80;99.90;;;;;;5040171;28;20032;-86
2023/02/23 04:33:07;;;;;;;78.68;43.33;;;9.80;99.90;;;;;;5040237;28;20090;-87
2023/02/23 04:35:34;;;;;;;77.88;41.63;;;9.80;99.90;;;;;;5056261;28;20028;-86
2023/02/23 04:38:00;;;;;;;81.70;43.63;;;9.80;99.90;;;;;;5058624;28;20082;-87
2023/02/23 04:40:26;;;;;;;81.65;42.88;;;9.80;99.90;;;;;;5069382;28;20059;-85
2023/02/23 04:42:52;;;;;;;78.78;41.17;;;9.80;99.90;;;;;;5080586;28;20028;-85
2023/02/23 04:45:19;;;;;;;84.85;43.25;;;9.80;99.90;;;;;;5080304;28;20080;-94
2023/02/23 04:47:45;;;;;;;87.85;42.75;;;9.80;99.90;;;;;;5063833;28;20062;-89
2023/02/23 04:50:11;;;;;;;83.53;43.63;;;9.80;99.90;;;;;;5063406;28;20009;-88
2023/02/23 04:52:37;;;;;;;87.18;43.50;;;9.80;99.90;;;;;;5079796;28;20019;-87
2023/02/23 04:55:04;;;;;;;79.88;42.58;;;9.80;99.90;;;;;;5055505;28;20028;-87
2023/02/23 04:57:30;;;;;;;74.35;40.95;;;9.80;99.90;;;;;;5061178;28;20024;-86
2023/02/23 04:59:55;;;;;;;79.05;41.03;;;9.80;99.90;;;;;;5040987;28;20050;-88
2023/02/23 05:02:21;;;;;;;80.65;43.20;;;9.80;99.90;;;;;;5039773;28;20082;-88
2023/02/23 05:04:47;;;;;;;75.03;41.47;;;9.80;99.90;;;;;;5056247;28;20159;-89
2023/02/23 05:07:12;;;;;;;87.70;45.03;;;9.80;99.90;;;;;;5056671;28;20040;-88
2023/02/23 05:09:38;;;;;;;88.75;43.85;;;9.80;99.90;;;;;;5058264;28;20037;-88
2023/02/23 05:12:04;;;;;;;82.55;42.78;;;9.70;99.90;;;;;;5060485;28;20029;-88
2023/02/23 05:14:29;;;;;;;79.25;41.92;;;9.80;99.90;;;;;;5060428;28;20468;-88
2023/02/23 05:16:55;;;;;;;84.97;45.00;;;9.80;99.90;;;;;;5044082;28;20037;-88
2023/02/23 05:19:20;;;;;;;78.43;41.28;;;9.70;99.90;;;;;;5043641;28;20504;-92
2023/02/23 05:21:49;;;;;;;82.03;42.38;;;9.70;99.90;;;;;;5043899;28;20029;-89
2023/02/23 05:24:15;;;;;;;82.68;42.25;;;9.80;99.90;;;;;;5046376;28;20119;-88
2023/02/23 05:26:40;;;;;;;86.70;44.35;;;9.70;99.90;;;;;;5044222;28;20028;-88
2023/02/23 05:29:06;;;;;;;84.80;42.58;;;9.70;99.90;;;;;;5061285;28;20078;-89
2023/02/23 05:31:34;;;;;;;87.47;42.90;;;9.70;99.90;;;;;;5044804;28;20090;-89
2023/02/23 05:34:00;;;;;;;86.18;43.13;;;9.70;99.90;;;;;;5046211;28;20392;-89
2023/02/23 05:36:26;;;;;;;88.30;42.88;;;9.70;99.90;;;;;;5080352;28;20048;-89
2023/02/23 05:38:52;;;;;;;86.93;43.30;;;9.70;99.90;;;;;;5061324;28;20039;-89
2023/02/23 05:41:20;;;;;;;87.90;45.10;;;9.70;99.90;;;;;;5045995;28;20420;-89
2023/02/23 05:43:46;;;;;;;85.22;43.33;;;9.70;99.90;;;;;;5080288;28;20106;-89
2023/02/23 05:46:16;;;;;;;85.10;43.38;;;9.70;99.90;;;;;;5062616;28;20420;-90
2023/02/23 05:48:42;;;;;;;89.25;42.65;;;9.70;99.90;;;;;;5079481;28;20029;-89
2023/02/23 05:51:11;;;;;;;82.03;40.38;;;9.70;99.90;;;;;;5044782;28;20039;-89
2023/02/23 05:53:37;;;;;;;86.03;41.90;;;9.70;99.90;;;;;;5078253;28;20025;-89
2023/02/23 05:56:04;;;;;;;83.43;41.67;;;9.60;99.90;;;;;;5060927;28;20016;-89
2023/02/23 05:58:30;;;;;;;84.72;42.22;;;9.70;99.90;;;;;;5059749;28;20036;-89
2023/02/23 06:00:56;;;;;;;85.75;42.85;;;9.60;99.90;;;;;;5045427;28;20028;-90
2023/02/23 06:03:22;;;;;;;81.40;40.63;;;9.60;99.90;;;;;;5061220;28;20096;-88
2023/02/23 06:05:56;;;;;;;84.68;42.25;;;9.60;99.90;;;;;;5060982;28;20029;-88
2023/02/23 06:08:25;;;;;;;87.20;43.38;;;9.60;99.90;;;;;;5060912;28;20093;-89
2023/02/23 06:10:51;;;;;;;85.88;42.88;;;9.60;99.90;;;;;;5061496;28;20039;-89
2023/02/23 06:13:18;;;;;;;86.72;43.50;;;9.60;99.90;;;;;;5062822;28;20070;-89
2023/02/23 06:15:44;;;;;;;80.82;40.40;;;9.60;99.90;;;;;;5061310;28;20457;-89
2023/02/23 06:18:10;;;;;;;84.30;41.38;;;9.60;99.90;;;;;;5060601;28;20024;-89
2023/02/23 06:20:36;;;;;;;87.45;41.83;;;9.60;99.90;;;;;;5059752;28;20528;-89
2023/02/23 06:23:03;;;;;;;81.85;41.83;;;9.60;99.90;;;;;;5060138;28;20024;-90
2023/02/23 06:25:32;;;;;;;86.15;42.05;;;9.60;99.90;;;;;;5060056;28;20024;-91
2023/02/23 06:27:57;;;;;;;84.55;41.67;;;9.60;99.90;;;;;;5060365;28;20020;-89
2023/02/23 06:30:23;;;;;;;77.30;39.10;;;9.60;99.90;;;;;;5060098;28;20021;-89
2023/02/23 06:32:49;;;;;;;80.70;40.35;;;9.60;99.90;;;;;;5060199;28;20037;-89
2023/02/23 06:35:14;;;;;;;81.00;40.90;;;9.60;99.90;;;;;;5061086;28;20040;-90
2023/02/23 06:37:40;;;;;;;99.43;44.08;;;9.60;99.90;;;;;;5060040;28;20056;-89
2023/02/23 06:40:06;;;;;;;85.63;40.55;;;9.50;99.90;;;;;;5043710;28;20115;-90
2023/02/23 06:42:34;;;;;;;79.13;39.55;;;9.60;99.90;;;;;;5059602;28;20119;-90
2023/02/23 06:45:01;;;;;;;76.82;39.53;;;9.50;99.90;;;;;;5059740;28;20027;-89
2023/02/23 06:47:26;;;;;;;76.50;37.90;;;9.50;99.90;;;;;;5042551;28;20032;-90
2023/02/23 06:49:52;;;;;;;87.25;40.97;;;9.60;99.90;;;;;;5059060;28;20024;-89
2023/02/23 06:52:18;;;;;;;80.78;39.85;;;9.50;99.90;;;;;;5042645;28;20044;-88
2023/02/23 06:54:43;;;;;;;80.63;40.15;;;9.50;99.90;;;;;;5058699;28;20059;-89
2023/02/23 06:57:10;;;;;;;81.55;38.40;;;9.50;99.90;;;;;;5076482;28;20372;-90
2023/02/23 06:59:36;;;;;;;83.30;39.88;;;9.50;99.90;;;;;;5059078;28;20037;-89
2023/02/23 07:02:04;;;;;;;77.78;37.45;;;9.50;99.90;;;;;;5058948;28;20501;-89
2023/02/23 07:04:30;;;;;;;90.28;41.78;;;9.50;99.90;;;;;;5042375;28;20460;-89
2023/02/23 07:06:56;;;;;;;79.10;39.08;;;9.30;99.90;;;;;;5058909;28;20484;-89
2023/02/23 07:09:22;;;;;;;87.07;40.13;;;9.40;99.90;;;;;;5042197;28;20055;-89
2023/02/23 07:11:47;;;;;;;93.68;40.47;;;9.40;99.90;;;;;;5042511;28;20456;-89
2023/02/23 07:14:14;;;;;;;92.88;40.30;;;9.40;99.90;;;;;;5076140;28;20532;-88
2023/02/23 07:16:39;;;;;;;90.57;42.20;;;9.40;99.90;;;;;;5041849;28;20039;-89
2023/02/23 07:19:05;;;;;;;98.03;41.95;;;9.50;99.90;;;;;;5058597;28;20115;-89
2023/02/23 07:21:32;;;;;;;87.57;39.28;;;9.40;99.90;;;;;;5058775;28;20070;-89
2023/02/23 07:23:59;;;;;;;91.93;39.78;;;9.40;99.90;;;;;;5058600;28;20013;-89
2023/02/23 07:26:25;;;;;;;82.93;40.03;;;9.40;99.90;;;;;;5041670;28;20560;-89
2023/02/23 07:28:51;;;;;;;88.40;40.83;;;9.50;99.90;;;;;;5041832;28;20098;-89
2023/02/23 07:31:17;;;;;;;91.85;39.10;;;9.40;99.90;;;;;;5058422;28;20060;-89
2023/02/23 07:33:43;;;;;;;89.70;39.63;;;9.40;99.90;;;;;;5058414;28;20028;-89
2023/02/23 07:36:09;;;;;;;84.90;38.55;;;9.40;99.90;;;;;;5058301;28;20063;-89
2023/02/23 07:38:35;;;;;;;86.47;38.63;;;9.40;99.90;;;;;;5058639;28;20056;-89
2023/02/23 07:41:01;;;;;;;88.43;38.50;;;9.40;99.90;;;;;;5058706;28;20050;-89
2023/02/23 07:43:27;;;;;;;77.47;37.97;;;9.40;99.90;;;;;;5058423;28;20028;-89
2023/02/23 07:45:53;;;;;;;87.45;39.90;;;9.40;99.90;;;;;;5057815;28;20431;-89
2023/02/23 07:48:20;;;;;;;76.57;37.88;;;9.40;99.90;;;;;;5041773;28;20067;-89
2023/02/23 07:50:46;;;;;;;92.97;38.88;;;9.40;99.90;;;;;;5042459;28;20024;-89
2023/02/23 07:53:13;;;;;;;82.82;38.72;;;9.40;99.90;;;;;;5059471;28;20032;-89
2023/02/23 07:55:39;;;;;;;91.25;40.38;;;9.40;99.90;;;;;;5079549;28;20051;-89
2023/02/23 07:58:05;;;;;;;87.47;37.65;;;9.40;99.90;;;;;;5060295;28;20032;-89
2023/02/23 08:00:32;;;;;;;78.28;36.42;;;9.40;99.90;;;;;;5060397;28;20032;-89
2023/02/23 08:02:58;;;;;;;87.63;38.78;;;9.40;99.90;;;;;;5078733;28;20104;-89
2023/02/23 08:05:24;;;;;;;73.43;35.75;;;9.40;99.90;;;;;;5067294;28;20020;-89
2023/02/23 08:07:50;;;;;;;81.70;36.58;;;9.40;99.90;;;;;;5063460;28;20024;-90
2023/02/23 08:10:19;;;;;;;86.47;36.90;;;9.40;99.90;;;;;;5081029;28;20009;-89
2023/02/23 08:12:44;;;;;;;80.68;36.42;;;9.40;99.90;;;;;;5064878;28;20091;-96
2023/02/23 08:15:10;;;;;;;87.70;36.88;;;9.40;99.90;;;;;;5079454;28;20038;-89
2023/02/23 08:17:37;;;;;;;79.68;36.30;;;9.40;99.90;;;;;;5095864;28;20043;-90
2023/02/23 08:20:04;;;;;;;85.05;36.63;;;9.50;99.90;;;;;;5078393;28;20054;-88
2023/02/23 08:22:30;;;;;;;74.57;35.65;;;9.40;99.90;;;;;;5082170;28;20018;-89
2023/02/23 08:24:56;;;;;;;84.82;38.08;;;9.40;99.90;;;;;;5059255;28;20111;-88
2023/02/23 08:27:21;;;;;;;86.10;38.00;;;9.40;99.90;;;;;;5043209;28;20032;-88
2023/02/23 08:29:47;;;;;;;82.05;35.72;;;9.40;99.90;;;;;;5058853;28;20078;-88
2023/02/23 08:32:13;;;;;;;75.32;35.85;;;9.50;99.90;;;;;;5059051;28;20050;-88
2023/02/23 08:34:43;;;;;;;80.47;36.22;;;9.40;99.90;;;;;;5061350;28;20050;-88
2023/02/23 08:37:09;;;;;;;73.25;34.05;;;9.50;99.90;;;;;;5059376;28;20447;-88
2023/02/23 08:39:35;;;;;;;87.03;36.88;;;9.50;99.90;;;;;;5042575;28;20028;-88
2023/02/23 08:42:00;;;;;;;81.47;35.60;;;9.50;99.90;;;;;;5041939;28;20370;-88
2023/02/23 08:44:26;;;;;;;90.63;37.95;;;9.50;99.90;;;;;;5058382;28;20059;-89
2023/02/23 08:46:54;;;;;;;85.18;37.05;;;9.50;99.90;;;;;;5041558;28;20025;-89
2023/02/23 08:49:21;;;;;;;93.35;38.50;;;9.50;99.90;;;;;;5059338;28;20522;-88
2023/02/23 08:51:47;;;;;;;91.30;37.95;;;9.50;99.90;;;;;;5059029;28;20107;-94
2023/02/23 08:54:15;;;;;;;88.47;38.30;;;9.50;99.90;;;;;;5056822;28;20059;-89
2023/02/23 08:56:41;;;;;;;89.10;37.75;;;9.50;99.90;;;;;;5058050;28;20431;-88
2023/02/23 08:59:07;;;;;;;79.28;37.08;;;9.60;99.90;;;;;;5040438;28;20032;-89
2023/02/23 09:01:33;;;;;;;88.93;38.72;;;9.60;99.90;;;;;;5040745;28;20033;-88
2023/02/23 09:03:59;;;;;;;80.40;36.85;;;9.60;99.90;;;;;;5057182;28;20029;-90
2023/02/23 09:06:25;;;;;;;87.72;37.50;;;9.60;99.90;;;;;;5041853;28;20020;-89
2023/02/23 09:08:54;;;;;;;86.18;37.75;;;9.60;99.90;;;;;;5059997;28;20040;-88
2023/02/23 09:11:21;;;;;;;92.55;38.92;;;9.60;99.90;;;;;;5058732;28;20557;-88
2023/02/23 09:13:47;;;;;;;89.60;37.22;;;9.60;99.90;;;;;;5056657;28;20487;-87
2023/02/23 09:16:12;;;;;;;90.10;39.50;;;9.60;99.90;;;;;;5040669;28;20021;-90
2023/02/23 09:18:39;;;;;;;80.97;37.10;;;9.60;99.90;;;;;;5057363;28;20540;-89
2023/02/23 09:21:09;;;;;;;86.45;35.92;;;9.60;99.90;;;;;;5056902;28;20016;-89
2023/02/23 09:23:35;;;;;;;80.07;36.25;;;9.60;99.90;;;;;;5057118;28;20025;-88
2023/02/23 09:26:06;;;;;;;86.25;36.35;;;9.60;99.90;;;;;;5057648;28;20087;-90
2023/02/23 09:28:36;;;;;;;81.35;36.55;;;9.60;99.90;;;;;;5040778;28;20037;-88
2023/02/23 09:31:08;;;;;;;85.22;35.97;;;9.60;99.90;;;;;;5057319;28;20107;-88
2023/02/23 09:33:34;;;;;;;83.47;36.78;;;9.60;99.90;;;;;;5074032;28;20044;-87
2023/02/23 09:36:18;;;;;;;89.40;37.60;;;9.60;99.90;;;;;;5075125;28;20080;-87
2023/02/23 09:38:46;;;;;;;90.88;37.15;;;9.60;99.90;;;;;;5074779;28;20078;-87
2023/02/23 09:41:39;;;;;;;87.68;35.55;;;9.60;99.90;;;;;;5057477;28;20043;-84
2023/02/23 09:44:30;;;;;;;82.68;35.55;;;9.60;99.90;;;;;;5057347;28;20024;-87
2023/02/23 09:50:04;;;;;;;87.43;35.85;;;9.60;99.90;;;;;;5074196;28;20071;-79
2023/02/23 09:52:35;;;;;;;;;;;9.60;99.90;;;;;;5057111;28;20040;-80
2023/02/23 09:55:01;;;;;;;80.32;34.75;;;9.60;99.90;;;;;;5056809;28;19904;-91
2023/02/23 09:57:37;;;;;;;82.70;35.20;;;9.60;99.90;;;;;;5044142;28;20032;-88
2023/02/23 10:00:15;;;;;;;86.82;36.55;;;9.60;99.90;;;;;;5044349;28;20456;-87
2023/02/23 10:06:52;;;;;;;94.45;37.85;;;9.60;99.90;;;;;;5028108;28;20404;-87
2023/02/23 10:13:19;;;;;;;102.60;37.75;;;9.70;99.90;;;;;;5079270;28;20035;-87
2023/02/23 10:15:56;;;;;;;92.47;38.20;;;9.60;99.90;;;;;;5078168;28;20021;-88
2023/02/23 11:42:32;;;;;;;80.47;30.92;;;9.60;99.90;;;;;;5077373;28;20077;-88
2023/02/23 12:02:00;;;;;;;64.05;25.27;;;9.70;99.90;;;;;;5076040;28;20106;-87
2023/02/23 12:08:45;;;;;;;63.70;25.13;;;9.80;99.90;;;;;;5056794;28;20113;-88
2023/02/23 12:11:17;;;;;;;62.83;23.25;;;9.80;99.90;;;;;;5038262;28;20059;-89
2023/02/23 12:17:33;;;;;;;60.90;22.65;;;9.80;99.90;;;;;;5055255;28;20079;-88
2023/02/23 12:23:28;;;;;;;60.80;22.15;;;9.80;99.90;;;;;;5057826;28;20029;-89
2023/02/23 12:29:55;;;;;;;63.15;24.45;;;9.90;99.90;;;;;;5057598;28;20083;-90
2023/02/23 12:32:59;;;;;;;62.45;23.70;;;9.90;99.90;;;;;;5039565;28;20028;-90
2023/02/23 12:35:55;;;;;;;62.50;23.70;;;9.90;99.90;;;;;;5041108;28;20441;-88
2023/02/23 12:52:07;;;;;;;49.72;21.65;;;9.90;99.90;;;;;;5015613;28;20045;-85
2023/02/23 12:54:33;;;;;;;;;;;9.90;99.90;;;;;;5015159;28;20132;-90
2023/02/23 12:57:18;;;;;;;52.03;20.98;;;9.90;99.90;;;;;;5037334;28;19955;-89
2023/02/23 12:59:43;;;;;;;47.72;20.98;;;9.90;99.90;;;;;;5037027;28;20064;-87
2023/02/23 13:02:15;;;;;;;48.22;21.30;;;9.90;99.90;;;;;;5033043;28;20049;-87
2023/02/23 13:05:05;;;;;;;49.40;20.98;;;9.90;99.90;;;;;;5045493;28;20358;-88
2023/02/23 13:07:43;;;;;;;41.28;17.88;;;10.00;99.90;;;;;;5033954;28;20518;-89
2023/02/23 13:10:48;;;;;;;37.17;15.75;;;10.00;99.90;;;;;;5056486;28;20059;-88
2023/02/23 13:13:41;;;;;;;30.55;12.57;;;9.90;99.90;;;;;;5070141;28;20468;-88
2023/02/23 13:16:16;;;;;;;29.40;12.45;;;9.90;99.90;;;;;;5054516;28;20025;-89
2023/02/23 13:19:10;;;;;;;29.83;12.35;;;9.90;99.90;;;;;;5036713;28;20044;-89
2023/02/23 13:21:45;;;;;;;30.23;12.70;;;9.90;99.90;;;;;;5036393;28;20483;-88
2023/02/23 13:24:15;;;;;;;27.27;12.93;;;9.90;99.90;;;;;;5036405;28;20346;-88
2023/02/23 13:27:23;;;;;;;30.00;11.38;;;9.90;99.90;;;;;;5053935;28;20029;-88
2023/02/23 13:29:52;;;;;;;28.77;13.00;;;9.90;99.90;;;;;;5036881;28;20029;-88
2023/02/23 13:32:22;;;;;;;28.02;12.77;;;9.90;99.90;;;;;;5040112;28;20089;-88
2023/02/23 13:34:51;;;;;;;29.60;12.02;;;9.90;99.90;;;;;;5040360;28;20025;-89
2023/02/23 13:37:21;;;;;;;25.10;11.60;;;9.90;99.90;;;;;;5056364;28;20025;-89
2023/02/23 13:52:46;;;;;;;26.25;11.73;;;10.00;99.90;;;;;;5015604;28;20061;-88
2023/02/23 13:58:34;;;;;;;25.25;10.13;;;10.00;99.90;;;;;;5079249;28;20032;-88
2023/02/23 14:01:34;;;;;;;21.85;10.50;;;10.00;99.90;;;;;;5060288;28;20031;-88
2023/02/23 14:04:22;;;;;;;21.00;9.70;;;10.00;99.90;;;;;;5090461;28;20032;-88
2023/02/23 14:07:08;;;;;;;21.70;10.48;;;10.00;99.90;;;;;;5059242;28;20090;-88
2023/02/23 14:09:42;;;;;;;21.77;10.00;;;10.00;99.90;;;;;;5076294;28;20106;-87
2023/02/23 14:12:18;;;;;;;20.70;10.18;;;10.10;99.90;;;;;;5059522;28;20471;-88
2023/02/23 14:14:45;;;;;;;20.27;9.35;;;10.10;99.90;;;;;;5059385;28;20017;-88
2023/02/23 14:17:14;;;;;;;20.15;10.75;;;10.10;99.90;;;;;;5077630;28;20043;-87
2023/02/23 14:20:02;;;;;;;21.40;10.07;;;10.10;99.90;;;;;;5075914;28;20028;-89
2023/02/23 14:22:28;;;;;;;21.15;10.13;;;10.10;99.90;;;;;;5060096;28;20024;-91
2023/02/23 14:25:31;;;;;;;19.48;10.25;;;10.20;99.90;;;;;;5056358;28;20025;-90
2023/02/23 14:28:01;;;;;;;22.15;10.63;;;10.20;99.90;;;;;;5069981;28;20044;-90
2023/02/23 14:30:51;;;;;;;23.52;10.82;;;10.10;99.90;;;;;;5062580;28;20024;-90
2023/02/23 14:33:39;;;;;;;22.13;10.82;;;10.20;99.90;;;;;;5080797;28;20027;-90
2023/02/23 14:36:20;;;;;;;21.67;10.45;;;10.20;99.90;;;;;;5080845;28;20024;-89
2023/02/23 14:38:50;;;;;;;23.27;11.00;;;10.20;99.90;;;;;;5081530;28;20050;-89
2023/02/23 14:41:21;;;;;;;20.83;10.50;;;10.20;99.90;;;;;;5080923;28;20107;-90
2023/02/23 14:44:02;;;;;;;26.27;11.75;;;10.20;99.90;;;;;;5081263;28;20083;-92
2023/02/23 14:46:28;;;;;;;23.75;12.15;;;10.20;99.90;;;;;;5082172;28;20108;-90
2023/02/23 14:49:04;;;;;;;28.25;12.15;;;10.20;99.90;;;;;;5065247;28;20063;-89
2023/02/23 14:51:40;;;;;;;28.98;12.48;;;10.20;99.90;;;;;;5082827;28;20024;-89
2023/02/23 14:54:31;;;;;;;28.00;12.13;;;10.20;99.90;;;;;;5075444;28;20085;-90
2023/02/23 14:56:59;;;;;;;29.97;11.77;;;10.20;99.90;;;;;;5094220;28;20039;-89
2023/02/23 14:59:28;;;;;;;27.30;12.57;;;10.20;99.90;;;;;;5101895;28;20020;-90
2023/02/23 15:01:59;;;;;;;31.13;13.15;;;10.20;99.90;;;;;;5118865;28;20008;-90
2023/02/23 15:04:28;;;;;;;28.83;13.95;;;10.20;99.90;;;;;;5084391;28;20031;-90
2023/02/23 15:06:58;;;;;;;28.52;13.10;;;10.20;99.90;;;;;;5116873;28;20027;-90
2023/02/23 15:09:38;;;;;;;29.73;13.83;;;10.20;99.90;;;;;;5089839;28;20134;-90
2023/02/23 15:12:13;;;;;;;32.25;14.45;;;10.20;99.90;;;;;;5081341;28;20111;-90
2023/02/23 15:14:42;;;;;;;35.28;14.80;;;10.20;99.90;;;;;;5098950;28;20016;-90
2023/02/23 15:17:18;;;;;;;28.38;14.27;;;10.20;99.90;;;;;;5097660;28;20024;-91
2023/02/23 15:19:50;;;;;;;33.05;13.73;;;10.20;99.90;;;;;;5060180;28;20029;-91
2023/02/23 15:22:24;;;;;;;32.28;14.52;;;10.20;99.90;;;;;;5069599;28;20028;-91
2023/02/23 15:24:49;;;;;;;27.52;13.13;;;10.20;99.90;;;;;;5072942;28;20096;-90
2023/02/23 15:27:21;;;;;;;28.52;13.68;;;10.20;99.90;;;;;;5039340;28;20108;-91
2023/02/23 15:29:48;;;;;;;27.17;13.30;;;10.20;99.90;;;;;;5056598;28;20031;-91
2023/02/23 15:32:23;;;;;;;30.73;13.93;;;10.20;99.90;;;;;;5056464;28;20025;-90
2023/02/23 15:34:54;;;;;;;25.30;12.70;;;10.20;99.90;;;;;;5078311;28;20063;-88
2023/02/23 15:37:41;;;;;;;26.20;12.77;;;10.20;99.90;;;;;;5043212;28;20380;-89
2023/02/23 15:40:28;;;;;;;23.40;12.00;;;10.10;99.90;;;;;;5058797;28;20032;-90
2023/02/23 15:42:59;;;;;;;22.38;11.88;;;10.20;99.90;;;;;;5043366;28;20029;-90
2023/02/23 15:45:31;;;;;;;23.27;11.77;;;10.20;99.90;;;;;;5058669;28;20020;-90
2023/02/23 15:48:02;;;;;;;26.17;13.00;;;10.10;99.90;;;;;;5058748;28;20094;-91
2023/02/23 15:50:31;;;;;;;;;;;10.10;99.90;;;;;;5059415;28;20111;-90
2023/02/23 15:53:00;;;;;;;26.23;11.45;;;10.10;99.90;;;;;;5080099;28;19917;-89
2023/02/23 15:55:34;;;;;;;26.10;12.38;;;10.10;99.90;;;;;;5039314;28;20044;-90
2023/02/23 15:58:12;;;;;;;25.00;12.98;;;10.10;99.90;;;;;;5048762;28;20071;-89
2023/02/23 16:00:41;;;;;;;27.90;14.10;;;10.10;99.90;;;;;;5052319;28;20028;-90
2023/02/23 16:03:27;;;;;;;25.02;12.05;;;10.10;99.90;;;;;;5067906;28;20032;-89
2023/02/23 16:06:37;;;;;;;27.08;13.35;;;10.10;99.90;;;;;;5036189;28;20017;-89
2023/02/23 16:09:26;;;;;;;23.77;12.82;;;10.10;99.90;;;;;;5027216;28;20045;-90
2023/02/23 16:12:01;;;;;;;26.38;12.05;;;10.10;99.90;;;;;;5044699;28;20033;-88
2023/02/23 16:14:40;;;;;;;23.35;12.25;;;10.10;99.90;;;;;;5053256;28;20022;-88
2023/02/23 16:17:06;;;;;;;28.10;13.10;;;10.10;99.90;;;;;;5053321;28;20025;-89
2023/02/23 16:19:32;;;;;;;23.38;12.27;;;10.10;99.90;;;;;;5053497;28;20040;-89
2023/02/23 16:22:01;;;;;;;26.23;13.15;;;10.10;99.90;;;;;;5056867;28;20040;-90
2023/02/23 16:24:28;;;;;;;30.63;15.45;;;10.10;99.90;;;;;;5040709;28;20029;-90
2023/02/23 16:27:01;;;;;;;26.92;12.30;;;10.10;99.90;;;;;;5049470;28;20060;-90
2023/02/23 16:29:40;;;;;;;25.00;12.48;;;10.10;99.90;;;;;;5035829;28;20112;-91
2023/02/23 16:32:22;;;;;;;30.77;13.27;;;10.10;99.90;;;;;;5034980;28;20112;-89
2023/02/23 16:35:00;;;;;;;27.85;12.13;;;10.10;99.90;;;;;;5033806;28;20032;-90
2023/02/23 16:37:27;;;;;;;27.33;12.57;;;10.10;99.90;;;;;;5034598;28;20132;-89
2023/02/23 16:39:54;;;;;;;30.98;13.48;;;10.10;99.90;;;;;;5043089;28;20029;-90
2023/02/23 16:42:30;;;;;;;31.02;13.65;;;10.00;99.90;;;;;;5034999;28;20029;-90
2023/02/23 16:44:57;;;;;;;35.60;14.00;;;10.00;99.90;;;;;;5050180;28;20060;-90
2023/02/23 16:47:22;;;;;;;30.27;13.52;;;10.10;99.90;;;;;;5050869;28;20018;-90
2023/02/23 16:49:51;;;;;;;33.78;14.32;;;10.00;99.90;;;;;;5067976;28;20036;-90